Hallett, Oklahoma
Current Conditions -  °F | °C
As of 8:55 PM on Wednesday 26 Nov 2014 (Local Time) from KCUH Reporting Station
Clear Clear  
Wind Chill: 30°   Ceiling: Unl
Heat Index: 37°   Visibility: 10mi
Dew Point: 30°   Wind: 12mph
Humidity: 75%   Direction: 350°N
Pressure: 30.38"   Gusts: NA
Location:  36.23°N, 96.57°W
Report Text: KCUH 270255Z AUTO 35010KT 10SM CLR 03/M01 A3038 RMK AO2
Loading
Personal Weather Stations






























Interactive Weather Map New forecast layout! Learn more

10-Day Weather Forecast

Advertisements
Track Severe Weather on mobile